createdAt,value
2018-03-01T00:03:32.763Z,22.5
2018-03-01T00:13:32.165Z,22.4
2018-03-01T00:23:31.090Z,22.3
2018-03-01T00:33:30.345Z,22.4
2018-03-01T00:43:29.720Z,22.3
2018-03-01T00:53:29.371Z,22.3
2018-03-01T01:03:27.869Z,22.5
2018-03-01T01:13:27.306Z,22.3
2018-03-01T01:23:26.392Z,22.2
2018-03-01T01:33:25.896Z,22.4
2018-03-01T01:43:24.879Z,22.3
2018-03-01T01:53:24.262Z,22.1
2018-03-01T02:03:23.344Z,22.4
2018-03-01T02:13:22.502Z,22.3
2018-03-01T02:23:21.474Z,22.2
2018-03-01T02:33:20.808Z,22.4
2018-03-01T02:43:20.471Z,22.1
2018-03-01T02:53:19.082Z,22.1
2018-03-01T03:03:18.512Z,22.3
2018-03-01T03:13:17.650Z,22.2
2018-03-01T03:23:16.680Z,22.2
2018-03-01T03:33:16.007Z,22.4
2018-03-01T03:43:15.311Z,22.3
2018-03-01T03:53:14.689Z,22.4
2018-03-01T04:03:13.673Z,22.2
2018-03-01T04:13:12.992Z,22
2018-03-01T04:23:12.046Z,22
2018-03-01T04:33:11.235Z,22.1
2018-03-01T04:43:10.332Z,22.1
2018-03-01T04:53:09.708Z,21.9
2018-03-01T05:03:09.157Z,22.3
2018-03-01T05:13:08.217Z,22.4
2018-03-01T05:23:07.396Z,22.3
2018-03-01T05:33:06.513Z,22.1
2018-03-01T05:43:05.717Z,22.1
2018-03-01T05:53:04.865Z,22.2
2018-03-01T06:03:03.978Z,22.4
2018-03-01T06:13:03.225Z,22.4
2018-03-01T06:23:02.462Z,22.1
2018-03-01T06:33:01.540Z,22.2
2018-03-01T06:43:00.742Z,22.3
2018-03-01T06:53:00.238Z,22.6
2018-03-01T07:02:59.450Z,22.5
2018-03-01T07:12:58.375Z,22.4
2018-03-01T07:22:57.582Z,22.4
2018-03-01T07:32:56.882Z,22.4
2018-03-01T07:42:55.863Z,22.8
2018-03-01T07:52:55.116Z,22.9
2018-03-01T08:02:54.928Z,22.6
2018-03-01T08:12:53.470Z,22.4
2018-03-01T08:22:52.850Z,22.6
2018-03-01T08:32:52.239Z,22.9
2018-03-01T08:42:51.512Z,23
2018-03-01T08:52:50.482Z,23.1
2018-03-01T09:02:49.682Z,23
2018-03-01T09:12:49.129Z,23.1
2018-03-01T09:22:47.927Z,23.1
2018-03-01T09:32:47.514Z,23.2
2018-03-01T09:42:46.763Z,23.2
2018-03-01T09:52:45.516Z,23.2
2018-03-01T10:02:45.023Z,23.3
2018-03-01T10:12:44.028Z,23.3
2018-03-01T10:22:43.403Z,23.3
2018-03-01T10:32:42.369Z,23.3
2018-03-01T10:42:41.946Z,23.3
2018-03-01T10:52:40.674Z,23.2
2018-03-01T11:02:39.969Z,23.3
2018-03-01T11:12:39.504Z,23.2
2018-03-01T11:22:38.302Z,23.2
2018-03-01T12:02:35.094Z,23.1
2018-03-01T12:12:34.321Z,23.1
2018-03-01T12:22:33.555Z,23
2018-03-01T12:32:32.678Z,22.9
2018-03-01T12:42:31.952Z,22.9
2018-03-01T12:52:31.456Z,22.8
2018-03-01T13:02:30.277Z,22.6
2018-03-01T13:12:29.528Z,22.5
2018-03-01T13:22:28.865Z,22.5
2018-03-01T13:32:28.228Z,22.7
2018-03-01T13:42:27.091Z,22.6
2018-03-01T13:52:26.305Z,22.5
2018-03-01T14:02:25.458Z,22.4
2018-03-01T14:12:24.656Z,22.3
2018-03-01T14:22:24.219Z,22.3
2018-03-01T14:32:23.099Z,22.3
2018-03-01T14:42:22.703Z,22.2
2018-03-01T14:52:21.783Z,22.2
2018-03-01T15:02:20.674Z,22.2
2018-03-01T15:12:19.857Z,22.3
2018-03-01T15:22:19.362Z,22.2
2018-03-01T15:32:18.575Z,22.1
2018-03-01T15:42:17.735Z,22.1
2018-03-01T15:52:16.704Z,22
2018-03-01T16:02:15.885Z,22
2018-03-01T16:12:15.462Z,22.1
2018-03-01T16:22:14.585Z,22
2018-03-01T16:32:13.782Z,21.9
2018-03-01T16:42:12.700Z,22.1
2018-03-01T16:52:12.044Z,22.5
2018-03-01T17:02:11.097Z,22.2
2018-03-01T17:12:10.295Z,22.1
2018-03-01T17:22:09.727Z,22.2
2018-03-01T17:32:08.998Z,22.3
2018-03-01T17:42:08.026Z,22.1
2018-03-01T17:52:07.237Z,22.1
2018-03-01T18:02:06.454Z,22.1
2018-03-01T18:12:05.532Z,22.2
2018-03-01T18:22:04.727Z,22.1
2018-03-01T18:32:04.149Z,22.2
2018-03-01T18:42:03.173Z,22.2
2018-03-01T18:52:02.565Z,22.1
2018-03-01T19:02:01.548Z,22.2
2018-03-01T19:12:00.674Z,22.3
2018-03-01T19:21:59.886Z,22.3
2018-03-01T19:31:59.283Z,22.1
2018-03-01T19:41:58.453Z,22.2
2018-03-01T19:51:58.245Z,22.1
2018-03-01T20:01:57.033Z,22.2
2018-03-01T20:11:56.229Z,22.1
2018-03-01T20:21:55.155Z,22.3
2018-03-01T20:31:54.351Z,22.2
2018-03-01T20:41:53.810Z,22.1
2018-03-01T20:51:52.788Z,22
2018-03-01T21:01:52.000Z,22.4
2018-03-01T21:11:51.608Z,22.4
2018-03-01T21:21:50.355Z,22.3
2018-03-01T21:31:49.890Z,22.3
2018-03-01T21:41:48.798Z,22.3
2018-03-01T21:51:47.999Z,22.1
2018-03-01T22:01:47.224Z,22.2
2018-03-01T22:11:46.546Z,22.2
2018-03-01T22:21:45.625Z,22.3
2018-03-01T22:31:44.829Z,22.1
2018-03-01T22:41:44.577Z,22.2
2018-03-01T22:51:43.307Z,22.2
2018-03-01T23:01:42.686Z,22.2
2018-03-01T23:11:41.591Z,22.1
2018-03-01T23:21:40.852Z,22.1
2018-03-01T23:31:39.940Z,22.1
2018-03-01T23:41:39.436Z,22.2
2018-03-01T23:51:38.704Z,22.1
